createdAt,value
2023-02-01T00:01:13.952Z,4.30
2023-02-01T00:03:40.766Z,4.30
2023-02-01T00:06:07.551Z,4.20
2023-02-01T00:08:34.284Z,4.20
2023-02-01T00:11:11.886Z,4.20
2023-02-01T00:13:42.836Z,4.20
2023-02-01T00:16:21.828Z,4.20
2023-02-01T00:18:51.302Z,4.20
2023-02-01T00:21:20.981Z,4.20
2023-02-01T00:23:48.098Z,4.10
2023-02-01T00:26:36.246Z,4.20
2023-02-01T00:29:05.922Z,4.20
2023-02-01T00:31:33.443Z,4.20
2023-02-01T00:34:00.240Z,4.20
2023-02-01T00:36:27.494Z,4.20
2023-02-01T00:38:54.250Z,4.20
2023-02-01T00:41:22.888Z,4.20
2023-02-01T00:43:50.395Z,4.20
2023-02-01T00:46:19.236Z,4.20
2023-02-01T00:48:46.472Z,4.20
2023-02-01T00:51:16.029Z,4.10
2023-02-01T00:53:43.158Z,4.20
2023-02-01T00:56:10.655Z,4.10
2023-02-01T00:58:37.668Z,4.00
2023-02-01T01:01:10.180Z,4.00
2023-02-01T01:03:42.772Z,4.10
2023-02-01T01:06:15.694Z,4.00
2023-02-01T01:08:43.387Z,4.00
2023-02-01T01:11:13.111Z,4.10
2023-02-01T01:13:40.462Z,4.10
2023-02-01T01:16:08.972Z,4.10
2023-02-01T01:18:36.639Z,4.00
2023-02-01T01:21:05.788Z,4.00
2023-02-01T01:23:33.011Z,4.10
2023-02-01T01:25:59.806Z,4.00
2023-02-01T01:28:26.483Z,4.00
2023-02-01T01:30:53.320Z,4.00
2023-02-01T01:33:20.110Z,4.00
2023-02-01T01:35:46.827Z,4.10
2023-02-01T01:38:13.546Z,4.20
2023-02-01T01:40:40.602Z,4.10
2023-02-01T01:43:15.139Z,4.10
2023-02-01T01:45:42.555Z,4.00
2023-02-01T01:48:21.681Z,4.10
2023-02-01T01:51:01.873Z,4.10
2023-02-01T01:53:35.625Z,4.20
2023-02-01T01:56:02.610Z,4.30
2023-02-01T01:58:31.659Z,4.20
2023-02-01T02:00:58.720Z,4.30
2023-02-01T02:03:35.024Z,4.20
2023-02-01T02:06:04.949Z,4.20
2023-02-01T02:08:32.056Z,4.20
2023-02-01T02:11:01.708Z,4.30
2023-02-01T02:13:38.236Z,4.30
2023-02-01T02:16:27.136Z,4.30
2023-02-01T02:19:22.140Z,4.40
2023-02-01T02:22:13.878Z,4.40
2023-02-01T02:25:03.801Z,4.50
2023-02-01T02:28:08.236Z,4.40
2023-02-01T02:31:12.909Z,4.50
2023-02-01T02:33:47.698Z,4.50
2023-02-01T02:36:20.258Z,4.50
2023-02-01T02:39:07.750Z,4.40
2023-02-01T02:41:58.385Z,4.50
2023-02-01T02:45:18.158Z,4.40
2023-02-01T02:47:49.234Z,4.50
2023-02-01T02:50:47.073Z,4.50
2023-02-01T02:53:37.537Z,4.50
2023-02-01T02:56:26.653Z,4.60
2023-02-01T02:59:13.179Z,4.70
2023-02-01T03:02:00.479Z,4.70
2023-02-01T03:04:27.440Z,4.50
2023-02-01T03:06:55.275Z,4.70
2023-02-01T03:09:35.264Z,4.70
2023-02-01T03:12:27.868Z,4.70
2023-02-01T03:15:11.257Z,4.70
2023-02-01T03:17:44.311Z,4.80
2023-02-01T03:20:14.342Z,4.70
2023-02-01T03:22:44.364Z,4.80
2023-02-01T03:25:16.389Z,4.80
2023-02-01T03:27:54.419Z,4.90
2023-02-01T03:30:27.805Z,4.90
2023-02-01T03:33:01.431Z,4.90
2023-02-01T03:35:52.386Z,4.90
2023-02-01T03:38:31.468Z,4.80
2023-02-01T03:41:09.320Z,4.80
2023-02-01T03:43:54.298Z,4.80
2023-02-01T03:46:33.587Z,4.90
2023-02-01T03:49:07.834Z,4.70
2023-02-01T03:51:39.046Z,4.70
2023-02-01T03:54:09.286Z,4.70
2023-02-01T03:56:39.114Z,4.70
2023-02-01T03:59:05.955Z,4.70
2023-02-01T04:01:35.597Z,4.70
2023-02-01T04:04:02.478Z,4.70
2023-02-01T04:06:29.517Z,4.70
2023-02-01T04:09:00.615Z,4.70
2023-02-01T04:11:28.488Z,4.70
2023-02-01T04:13:55.283Z,4.80
2023-02-01T04:16:22.085Z,4.80
2023-02-01T04:18:48.828Z,4.90
2023-02-01T04:21:15.560Z,4.90
2023-02-01T04:23:42.237Z,4.90
2023-02-01T04:26:08.946Z,4.90
2023-02-01T04:28:35.625Z,4.80
2023-02-01T04:31:02.431Z,4.80
2023-02-01T04:33:29.188Z,4.80
2023-02-01T04:35:55.901Z,4.80
2023-02-01T04:38:22.812Z,4.80
2023-02-01T04:40:50.051Z,4.90
2023-02-01T04:43:18.064Z,4.90
2023-02-01T04:45:49.594Z,4.90
2023-02-01T04:48:17.529Z,4.90
2023-02-01T04:50:48.260Z,4.80
2023-02-01T04:53:18.279Z,4.70
2023-02-01T04:55:45.550Z,4.70
2023-02-01T04:58:12.411Z,4.70
2023-02-01T05:00:39.182Z,4.70
2023-02-01T05:03:05.992Z,4.70
2023-02-01T05:05:32.825Z,4.70
2023-02-01T05:07:59.611Z,4.90
2023-02-01T05:10:26.358Z,4.90
2023-02-01T05:13:11.971Z,4.80
2023-02-01T05:15:38.731Z,4.50
2023-02-01T05:18:05.621Z,4.40
2023-02-01T05:20:32.387Z,4.40
2023-02-01T05:22:59.106Z,4.40
2023-02-01T05:25:25.788Z,4.40
2023-02-01T05:27:53.294Z,4.40
2023-02-01T05:30:20.444Z,4.40
2023-02-01T05:32:51.271Z,4.40
2023-02-01T05:35:17.929Z,4.40
2023-02-01T05:37:44.636Z,4.50
2023-02-01T05:40:11.886Z,4.50
2023-02-01T05:42:38.558Z,4.50
2023-02-01T05:45:06.366Z,4.50
2023-02-01T05:47:33.203Z,4.50
2023-02-01T05:49:59.954Z,4.50
2023-02-01T05:52:26.736Z,4.70
2023-02-01T05:54:53.958Z,4.60
2023-02-01T05:57:20.706Z,4.60
2023-02-01T05:59:49.537Z,4.50
2023-02-01T06:02:17.414Z,4.50
2023-02-01T06:04:44.183Z,4.50
2023-02-01T06:07:11.368Z,4.50
2023-02-01T06:09:38.278Z,4.50
2023-02-01T06:12:05.368Z,4.40
2023-02-01T06:14:32.070Z,4.40
2023-02-01T06:16:58.807Z,4.40
2023-02-01T06:19:25.636Z,4.40
2023-02-01T06:21:52.574Z,4.30
2023-02-01T06:24:19.362Z,4.20
2023-02-01T06:26:46.371Z,4.10
2023-02-01T06:29:13.650Z,3.90
2023-02-01T06:31:40.871Z,3.90
2023-02-01T06:34:07.655Z,4.00
2023-02-01T06:36:34.480Z,4.00
2023-02-01T06:39:01.261Z,4.00
2023-02-01T06:41:29.591Z,4.10
2023-02-01T06:43:56.619Z,4.20
2023-02-01T06:46:23.579Z,4.30
2023-02-01T06:48:51.961Z,4.40
2023-02-01T06:51:36.567Z,4.40
2023-02-01T06:54:03.502Z,4.40
2023-02-01T06:56:32.256Z,4.40
2023-02-01T06:58:59.220Z,4.50
2023-02-01T07:01:26.017Z,4.40
2023-02-01T07:03:53.032Z,4.50
2023-02-01T07:06:20.027Z,4.50
2023-02-01T07:08:46.817Z,4.40
2023-02-01T07:11:15.944Z,4.40
2023-02-01T07:13:42.794Z,4.50
2023-02-01T07:16:15.563Z,4.50
2023-02-01T07:18:42.434Z,4.50
2023-02-01T07:21:09.474Z,4.60
2023-02-01T07:23:36.782Z,4.70
2023-02-01T07:26:06.024Z,4.70
2023-02-01T07:28:34.718Z,4.70
2023-02-01T07:31:22.470Z,4.70
2023-02-01T07:33:52.521Z,4.70
2023-02-01T07:36:20.130Z,4.70
2023-02-01T07:38:50.089Z,4.70
2023-02-01T07:41:17.575Z,4.70
2023-02-01T07:43:44.746Z,4.70
2023-02-01T07:46:12.155Z,4.70
2023-02-01T07:48:39.133Z,4.70
2023-02-01T07:51:16.859Z,4.90
2023-02-01T07:53:44.603Z,4.90
2023-02-01T07:56:17.550Z,4.90
2023-02-01T07:58:51.801Z,4.90
2023-02-01T08:01:26.444Z,5.00
2023-02-01T08:04:01.823Z,5.00
2023-02-01T08:06:32.113Z,5.00
2023-02-01T08:08:59.274Z,5.10
2023-02-01T08:11:26.660Z,5.20
2023-02-01T08:13:54.221Z,5.20
2023-02-01T08:16:22.393Z,5.10
2023-02-01T08:18:49.249Z,5.20
2023-02-01T08:21:22.944Z,5.20
2023-02-01T08:23:50.426Z,5.20
2023-02-01T08:26:18.978Z,5.30
2023-02-01T08:28:48.669Z,5.30
2023-02-01T08:31:18.269Z,5.30
2023-02-01T08:33:50.615Z,5.30
2023-02-01T08:36:17.448Z,5.30
2023-02-01T08:38:44.479Z,5.30
2023-02-01T08:41:16.895Z,5.30
2023-02-01T08:43:44.730Z,5.30
2023-02-01T08:46:12.446Z,5.30
2023-02-01T08:48:39.600Z,5.50
2023-02-01T08:51:09.084Z,5.50
2023-02-01T08:53:37.048Z,5.50
2023-02-01T08:56:04.780Z,5.30
2023-02-01T08:58:31.589Z,5.20
2023-02-01T09:00:58.450Z,5.10
2023-02-01T09:03:25.247Z,5.10
2023-02-01T09:05:54.284Z,5.00
2023-02-01T09:08:21.516Z,5.10
2023-02-01T09:10:48.390Z,5.10
2023-02-01T09:13:15.139Z,5.20
2023-02-01T09:15:41.813Z,5.30
2023-02-01T09:18:08.525Z,5.30
2023-02-01T09:20:35.357Z,5.40
2023-02-01T09:23:02.146Z,5.50
2023-02-01T09:25:29.309Z,5.50
2023-02-01T09:27:56.035Z,5.60
2023-02-01T09:30:23.089Z,5.60
2023-02-01T09:32:50.083Z,5.60
2023-02-01T09:35:17.315Z,5.70
2023-02-01T09:37:44.105Z,5.70
2023-02-01T09:40:17.684Z,5.60
2023-02-01T09:43:19.229Z,5.70
2023-02-01T09:46:14.656Z,5.70
2023-02-01T09:48:44.918Z,5.80
2023-02-01T09:51:25.497Z,5.90
2023-02-01T09:54:09.261Z,5.90
2023-02-01T09:56:53.379Z,6.00
2023-02-01T09:59:35.627Z,6.00
2023-02-01T10:02:04.324Z,6.10
2023-02-01T10:04:31.144Z,6.10
2023-02-01T10:07:13.832Z,6.10
2023-02-01T10:10:00.532Z,6.10
2023-02-01T10:13:08.112Z,6.20
2023-02-01T10:16:03.978Z,6.20
2023-02-01T10:18:45.854Z,6.20
2023-02-01T10:21:22.116Z,6.30
2023-02-01T10:24:16.111Z,6.30
2023-02-01T10:26:47.993Z,6.30
2023-02-01T10:29:20.690Z,6.30
2023-02-01T10:31:47.945Z,6.30
2023-02-01T10:34:32.743Z,6.30
2023-02-01T10:37:20.298Z,6.30
2023-02-01T10:39:49.852Z,6.30
2023-02-01T10:42:20.926Z,6.30
2023-02-01T10:44:49.087Z,6.30
2023-02-01T10:47:19.284Z,6.40
2023-02-01T10:50:16.406Z,6.40
2023-02-01T10:53:03.809Z,6.40
2023-02-01T10:55:33.840Z,6.40
2023-02-01T10:58:03.356Z,6.40
2023-02-01T11:00:54.910Z,6.40
2023-02-01T11:03:44.505Z,6.30
2023-02-01T11:06:26.596Z,6.30
2023-02-01T11:08:59.800Z,6.20
2023-02-01T11:11:27.085Z,6.20
2023-02-01T11:13:56.847Z,6.20
2023-02-01T11:16:31.081Z,6.20
2023-02-01T11:18:59.480Z,6.10
2023-02-01T11:21:26.693Z,6.10
2023-02-01T11:23:53.819Z,6.10
2023-02-01T11:26:26.157Z,6.10
2023-02-01T11:29:04.914Z,6.10
2023-02-01T11:31:34.849Z,6.10
2023-02-01T11:34:07.159Z,6.10
2023-02-01T11:36:36.563Z,6.10
2023-02-01T11:39:31.924Z,6.10
2023-02-01T11:42:04.263Z,6.10
2023-02-01T11:44:37.560Z,6.10
2023-02-01T11:47:24.845Z,6.10
2023-02-01T11:50:00.411Z,6.20
2023-02-01T11:52:58.921Z,6.20
2023-02-01T11:55:56.159Z,6.20
2023-02-01T11:58:56.707Z,6.20
2023-02-01T12:01:44.943Z,6.20
2023-02-01T12:04:45.332Z,6.20
2023-02-01T12:07:47.911Z,6.30
2023-02-01T12:10:44.192Z,6.30
2023-02-01T12:13:27.689Z,6.40
2023-02-01T12:16:12.742Z,6.30
2023-02-01T12:18:45.435Z,6.40
2023-02-01T12:21:31.002Z,6.30
2023-02-01T12:24:26.878Z,6.20
2023-02-01T12:27:08.887Z,6.00
2023-02-01T12:30:08.506Z,5.80
2023-02-01T12:32:50.193Z,5.60
2023-02-01T12:35:54.537Z,5.50
2023-02-01T12:38:53.528Z,5.40
2023-02-01T12:41:33.508Z,5.30
2023-02-01T12:44:12.374Z,5.30
2023-02-01T12:46:51.339Z,5.30
2023-02-01T12:49:32.237Z,5.30
2023-02-01T12:52:03.294Z,5.20
2023-02-01T12:54:46.584Z,5.10
2023-02-01T12:57:18.979Z,5.00
2023-02-01T13:00:11.359Z,4.90
2023-02-01T13:02:55.781Z,4.90
2023-02-01T13:05:29.484Z,4.90
2023-02-01T13:08:08.758Z,4.90
2023-02-01T13:10:51.991Z,4.90
2023-02-01T13:13:31.940Z,5.00
2023-02-01T13:16:12.797Z,5.00
2023-02-01T13:18:44.090Z,5.00
2023-02-01T13:21:26.563Z,5.00
2023-02-01T13:23:54.645Z,4.80
2023-02-01T13:26:21.679Z,4.80
2023-02-01T13:28:52.886Z,4.80
2023-02-01T13:31:40.371Z,4.80
2023-02-01T13:34:29.691Z,4.90
2023-02-01T13:37:06.260Z,4.90
2023-02-01T13:39:57.962Z,4.90
2023-02-01T13:42:44.400Z,4.70
2023-02-01T13:45:18.799Z,4.70
2023-02-01T13:47:50.678Z,4.80
2023-02-01T13:50:39.969Z,4.70
2023-02-01T13:53:12.768Z,4.70
2023-02-01T13:56:16.280Z,4.70
2023-02-01T13:58:44.890Z,4.70
2023-02-01T14:01:23.414Z,4.50
2023-02-01T14:03:54.835Z,4.30
2023-02-01T14:06:28.191Z,4.30
2023-02-01T14:09:17.712Z,4.40
2023-02-01T14:11:58.897Z,4.40
2023-02-01T14:14:25.682Z,4.50
2023-02-01T14:16:55.113Z,4.50
2023-02-01T14:19:23.425Z,4.50
2023-02-01T14:22:02.500Z,4.50
2023-02-01T14:24:35.410Z,4.50
2023-02-01T14:27:24.251Z,3.60
2023-02-01T14:30:00.878Z,2.40
2023-02-01T14:32:34.724Z,2.30
2023-02-01T14:35:07.388Z,2.20
2023-02-01T14:37:38.616Z,2.20
2023-02-01T14:40:14.668Z,1.80
2023-02-01T14:42:47.165Z,2.00
2023-02-01T14:45:34.123Z,2.10
2023-02-01T14:48:07.013Z,2.20
2023-02-01T14:50:33.895Z,2.20
2023-02-01T14:53:09.485Z,2.30
2023-02-01T14:55:43.839Z,2.20
2023-02-01T14:58:35.549Z,2.20
2023-02-01T15:01:05.787Z,2.20
2023-02-01T15:04:10.281Z,2.20
2023-02-01T15:06:43.862Z,2.10
2023-02-01T15:09:13.758Z,2.20
2023-02-01T15:12:18.328Z,2.20
2023-02-01T15:15:05.101Z,2.20
2023-02-01T15:17:34.946Z,2.20
2023-02-01T15:20:23.932Z,2.20
2023-02-01T15:23:02.752Z,2.20
2023-02-01T15:25:36.410Z,2.20
2023-02-01T15:28:04.227Z,2.20
2023-02-01T15:30:34.169Z,2.30
2023-02-01T15:33:16.255Z,2.40
2023-02-01T15:35:45.669Z,2.50
2023-02-01T15:38:24.431Z,2.60
2023-02-01T15:41:08.607Z,2.70
2023-02-01T15:43:56.188Z,2.80
2023-02-01T15:46:30.472Z,2.90
2023-02-01T15:48:57.541Z,2.90
2023-02-01T15:51:26.840Z,3.10
2023-02-01T15:54:03.324Z,3.20
2023-02-01T15:56:36.068Z,3.30
2023-02-01T15:59:05.886Z,3.30
2023-02-01T16:01:38.982Z,3.30
2023-02-01T16:04:17.923Z,3.40
2023-02-01T16:06:56.421Z,3.30
2023-02-01T16:09:37.867Z,2.90
2023-02-01T16:12:05.144Z,2.60
2023-02-01T16:14:32.886Z,2.70
2023-02-01T16:17:00.083Z,2.70
2023-02-01T16:19:29.161Z,2.50
2023-02-01T16:21:56.700Z,2.40
2023-02-01T16:24:25.895Z,2.40
2023-02-01T16:26:52.984Z,2.40
2023-02-01T16:29:19.802Z,2.40
2023-02-01T16:31:46.590Z,2.40
2023-02-01T16:34:18.071Z,2.50
2023-02-01T16:36:52.552Z,2.50
2023-02-01T16:39:20.270Z,2.50
2023-02-01T16:41:47.106Z,2.60
2023-02-01T16:44:13.857Z,2.60
2023-02-01T16:46:43.932Z,2.70
2023-02-01T16:49:25.376Z,2.80
2023-02-01T16:51:57.171Z,3.00
2023-02-01T16:54:24.023Z,3.10
2023-02-01T16:56:50.826Z,3.30
2023-02-01T16:59:17.490Z,3.50
2023-02-01T17:01:45.735Z,3.50
2023-02-01T17:04:12.526Z,3.70
2023-02-01T17:06:40.045Z,3.80
2023-02-01T17:09:07.550Z,3.80
2023-02-01T17:11:34.331Z,3.90
2023-02-01T17:14:18.117Z,4.00
2023-02-01T17:16:48.097Z,4.00
2023-02-01T17:19:18.180Z,4.00
2023-02-01T17:21:56.619Z,4.00
2023-02-01T17:24:30.711Z,4.00
2023-02-01T17:27:04.487Z,4.00
2023-02-01T17:29:31.316Z,4.00
2023-02-01T17:32:00.601Z,4.00
2023-02-01T17:34:28.133Z,3.90
2023-02-01T17:36:55.117Z,4.00
2023-02-01T17:39:40.513Z,3.90
2023-02-01T17:42:11.820Z,4.00
2023-02-01T17:44:38.657Z,4.00
2023-02-01T17:47:05.423Z,3.90
2023-02-01T17:49:32.185Z,3.90
2023-02-01T17:51:59.013Z,4.00
2023-02-01T17:54:26.347Z,4.00
2023-02-01T17:56:53.136Z,4.00
2023-02-01T17:59:19.868Z,4.00
2023-02-01T18:01:47.148Z,4.10
2023-02-01T18:04:18.590Z,4.20
2023-02-01T18:06:45.942Z,4.40
2023-02-01T18:09:12.758Z,4.40
2023-02-01T18:11:39.521Z,4.50
2023-02-01T18:14:06.259Z,4.40
2023-02-01T18:16:34.396Z,4.40
2023-02-01T18:19:05.053Z,4.40
2023-02-01T18:21:42.688Z,4.50
2023-02-01T18:24:17.148Z,4.70
2023-02-01T18:26:43.942Z,4.70
2023-02-01T18:29:10.934Z,4.70
2023-02-01T18:31:45.112Z,4.60
2023-02-01T18:34:17.072Z,4.60
2023-02-01T18:36:43.822Z,4.70
2023-02-01T18:39:11.600Z,4.70
2023-02-01T18:41:38.338Z,4.70
2023-02-01T18:44:05.135Z,4.70
2023-02-01T18:46:31.894Z,4.70
2023-02-01T18:48:58.551Z,4.70
2023-02-01T18:51:26.276Z,4.60
2023-02-01T18:53:53.410Z,4.60
2023-02-01T18:56:20.133Z,4.70
2023-02-01T18:58:46.906Z,4.70
2023-02-01T19:01:16.676Z,4.70
2023-02-01T19:03:49.251Z,4.70
2023-02-01T19:06:18.157Z,4.70
2023-02-01T19:08:46.256Z,4.60
2023-02-01T19:11:13.587Z,4.70
2023-02-01T19:13:40.581Z,4.70
2023-02-01T19:16:12.563Z,4.70
2023-02-01T19:18:39.764Z,4.70
2023-02-01T19:21:12.542Z,4.70
2023-02-01T19:23:39.857Z,4.70
2023-02-01T19:26:11.912Z,4.70
2023-02-01T19:28:39.092Z,4.60
2023-02-01T19:31:07.639Z,4.50
2023-02-01T19:33:35.177Z,4.70
2023-02-01T19:36:05.254Z,4.70
2023-02-01T19:38:33.260Z,4.70
2023-02-01T19:40:59.954Z,4.70
2023-02-01T19:43:28.197Z,4.60
2023-02-01T19:45:55.821Z,4.50
2023-02-01T19:48:22.537Z,4.60
2023-02-01T19:50:49.820Z,4.60
2023-02-01T19:53:16.723Z,4.50
2023-02-01T19:55:47.142Z,4.50
2023-02-01T19:58:14.443Z,4.60
2023-02-01T20:00:40.782Z,4.60
2023-02-01T20:03:07.742Z,4.70
2023-02-01T20:05:34.606Z,4.70
2023-02-01T20:08:01.793Z,4.80
2023-02-01T20:10:28.757Z,4.90
2023-02-01T20:12:55.453Z,4.90
2023-02-01T20:15:24.792Z,4.90
2023-02-01T20:17:51.835Z,4.90
2023-02-01T20:20:18.822Z,4.90
2023-02-01T20:22:45.522Z,5.00
2023-02-01T20:25:12.643Z,5.00
2023-02-01T20:27:40.384Z,4.90
2023-02-01T20:30:07.731Z,4.90
2023-02-01T20:32:34.406Z,4.90
2023-02-01T20:35:01.134Z,4.90
2023-02-01T20:37:28.027Z,5.00
2023-02-01T20:39:54.815Z,5.00
2023-02-01T20:42:21.693Z,5.10
2023-02-01T20:44:48.470Z,5.00
2023-02-01T20:47:15.246Z,5.00
2023-02-01T20:49:41.975Z,5.00
2023-02-01T20:52:08.854Z,5.00
2023-02-01T20:54:35.636Z,5.00
2023-02-01T20:57:02.554Z,5.00
2023-02-01T20:59:29.330Z,5.00
2023-02-01T21:01:56.164Z,4.90
2023-02-01T21:04:27.304Z,4.90
2023-02-01T21:06:55.187Z,5.00
2023-02-01T21:09:22.361Z,4.90
2023-02-01T21:11:49.193Z,4.90
2023-02-01T21:14:16.116Z,5.00
2023-02-01T21:16:43.825Z,5.00
2023-02-01T21:19:10.694Z,5.00
2023-02-01T21:21:37.557Z,4.90
2023-02-01T21:24:05.022Z,5.00
2023-02-01T21:26:41.230Z,5.00
2023-02-01T21:29:10.150Z,4.90
2023-02-01T21:31:37.705Z,4.90
2023-02-01T21:34:04.616Z,4.80
2023-02-01T21:36:37.481Z,4.90
2023-02-01T21:39:06.850Z,4.90
2023-02-01T21:41:54.110Z,4.90
2023-02-01T21:44:21.368Z,4.80
2023-02-01T21:46:48.720Z,4.90
2023-02-01T21:49:15.759Z,4.90
2023-02-01T21:51:43.297Z,5.00
2023-02-01T21:54:11.911Z,5.00
2023-02-01T21:56:40.296Z,5.00
2023-02-01T21:59:07.887Z,5.00
2023-02-01T22:01:34.750Z,5.00
2023-02-01T22:04:01.778Z,5.00
2023-02-01T22:06:34.060Z,5.00
2023-02-01T22:09:01.738Z,5.10
2023-02-01T22:11:29.092Z,5.20
2023-02-01T22:13:56.048Z,5.30
2023-02-01T22:16:23.688Z,5.20
2023-02-01T22:18:52.140Z,5.10
2023-02-01T22:21:19.957Z,5.30
2023-02-01T22:23:54.027Z,5.30
2023-02-01T22:26:21.683Z,5.30
2023-02-01T22:28:49.435Z,5.20
2023-02-01T22:31:16.276Z,5.10
2023-02-01T22:33:43.230Z,5.20
2023-02-01T22:36:10.054Z,5.30
2023-02-01T22:38:36.863Z,5.30
2023-02-01T22:41:06.006Z,5.30
2023-02-01T22:43:33.978Z,5.30
2023-02-01T22:46:02.144Z,5.30
2023-02-01T22:48:30.644Z,5.30
2023-02-01T22:50:58.783Z,5.30
2023-02-01T22:53:25.658Z,5.20
2023-02-01T22:55:52.384Z,5.10
2023-02-01T22:58:22.622Z,5.10
2023-02-01T23:00:49.355Z,5.00
2023-02-01T23:03:16.216Z,5.00
2023-02-01T23:05:43.067Z,5.00
2023-02-01T23:08:09.933Z,5.00
2023-02-01T23:10:37.148Z,5.00
2023-02-01T23:13:04.339Z,4.90
2023-02-01T23:15:31.057Z,4.90
2023-02-01T23:17:57.934Z,4.90
2023-02-01T23:20:24.743Z,4.70
2023-02-01T23:22:51.432Z,4.80
2023-02-01T23:25:19.045Z,4.70
2023-02-01T23:27:47.295Z,4.70
2023-02-01T23:30:16.533Z,4.70
2023-02-01T23:32:43.629Z,4.80
2023-02-01T23:35:10.410Z,4.80
2023-02-01T23:37:37.256Z,4.80
2023-02-01T23:40:04.484Z,4.90
2023-02-01T23:42:31.260Z,4.80
2023-02-01T23:44:57.975Z,4.90
2023-02-01T23:47:24.818Z,4.80
2023-02-01T23:49:51.635Z,4.80
2023-02-01T23:52:18.392Z,4.90
2023-02-01T23:54:45.969Z,4.80
2023-02-01T23:57:12.792Z,4.70
2023-02-01T23:59:39.489Z,4.70
